PWSweather.com
Personal Weather Stations
Station Observations
KAZSIERR7
Canyon De Flores, Sierra Vista, AZ 85650

Canyon De FloresSierra Vista, AZ 85650

Lat: 31.5, Lon: -110.26

Elevation: 4645

Station Type: LaCrosse WS-3610 & Boltek Lightning Detector

http://www.lightningring.com/weather/

High Low Average
Temperature 50.9°F10.5°C 23.5°F-4.7°C 36.7°F2.6°C
Dew Point 24.3°F-4.3°C 9.0°F-12.8°C 18.9°F-7.3°C
Winds 7.1 mph 11.4 kmh Calm Calm 1.0 mph SW1.6 kmh SW
Wind Gusts 51.0 mph82.1 kmh -- 10.0 mph16.1 kmh
Humidity 87% 20% 55%
Pressure 30.06 in1017.9 mb 29.95 in1014.2 mb -
Precipitation 0.00 in0.0 mm - -
Hour Temp Dew Point Humidity Winds Wind Gusts Pressure Precip Precip Rate Daily Precip Total
12:00 AM 27.4°F-2.6°C 24.0°F-4.4°C 87% Calm Calm -- 29.97 in1014.9 mb 0.00 in0.0 mm 0.00 in/hr0.0 mm/hr 0.00 in0.0 mm
12:10 AM 26.9°F-2.8°C 23.5°F-4.7°C 87% Calm Calm -- 29.96 in1014.6 mb 0.00 in0.0 mm 0.00 in/hr0.0 mm/hr 0.00 in0.0 mm
12:21 AM 27.4°F-2.6°C 23.7°F-4.6°C 86% Calm Calm -- 29.96 in1014.6 mb 0.00 in0.0 mm 0.00 in/hr0.0 mm/hr 0.00 in0.0 mm
12:31 AM 27.4°F-2.6°C 23.5°F-4.7°C 85% Calm Calm -- 29.96 in1014.6 mb 0.00 in0.0 mm 0.00 in/hr0.0 mm/hr 0.00 in0.0 mm
12:42 AM 27.3°F-2.6°C 23.1°F-4.9°C 84% Calm Calm -- 29.96 in1014.6 mb 0.00 in0.0 mm 0.00 in/hr0.0 mm/hr 0.00 in0.0 mm
12:52 AM 27.3°F-2.6°C 22.8°F-5.1°C 83% Calm Calm -- 29.96 in1014.6 mb 0.00 in0.0 mm 0.00 in/hr0.0 mm/hr 0.00 in0.0 mm
01:03 AM 27.1°F-2.7°C 22.6°F-5.2°C 83% Calm Calm -- 29.96 in1014.6 mb 0.00 in0.0 mm 0.00 in/hr0.0 mm/hr 0.00 in0.0 mm
01:13 AM 27.4°F-2.6°C 22.9°F-5.1°C 83% Calm Calm -- 29.96 in1014.6 mb 0.00 in0.0 mm 0.00 in/hr0.0 mm/hr 0.00 in0.0 mm
01:24 AM 27.1°F-2.7°C 22.6°F-5.2°C 83% Calm Calm -- 29.96 in1014.6 mb 0.00 in0.0 mm 0.00 in/hr0.0 mm/hr 0.00 in0.0 mm
01:34 AM 27.1°F-2.7°C 22.6°F-5.2°C 83% Calm Calm -- 29.96 in1014.6 mb 0.00 in0.0 mm 0.00 in/hr0.0 mm/hr 0.00 in0.0 mm
01:45 AM 27.3°F-2.6°C 22.8°F-5.1°C 83% Calm Calm -- 29.97 in1014.9 mb 0.00 in0.0 mm 0.00 in/hr0.0 mm/hr 0.00 in0.0 mm
01:55 AM 27.1°F-2.7°C 22.3°F-5.4°C 82% Calm Calm -- 29.96 in1014.6 mb 0.00 in0.0 mm 0.00 in/hr0.0 mm/hr 0.00 in0.0 mm
02:06 AM 27.4°F-2.6°C 22.6°F-5.2°C 82% Calm Calm -- 29.96 in1014.6 mb 0.00 in0.0 mm 0.00 in/hr0.0 mm/hr 0.00 in0.0 mm
02:16 AM 27.4°F-2.6°C 22.3°F-5.4°C 81% Calm Calm -- 29.96 in1014.6 mb 0.00 in0.0 mm 0.00 in/hr0.0 mm/hr 0.00 in0.0 mm
02:27 AM 27.4°F-2.6°C 22.3°F-5.4°C 81% Calm Calm -- 29.96 in1014.6 mb 0.00 in0.0 mm 0.00 in/hr0.0 mm/hr 0.00 in0.0 mm
02:37 AM 26.9°F-2.8°C 21.8°F-5.7°C 81% Calm Calm -- 29.95 in1014.2 mb 0.00 in0.0 mm 0.00 in/hr0.0 mm/hr 0.00 in0.0 mm
02:48 AM 26.7°F-2.9°C 21.7°F-5.7°C 81% Calm Calm -- 29.96 in1014.6 mb 0.00 in0.0 mm 0.00 in/hr0.0 mm/hr 0.00 in0.0 mm
02:58 AM 26.2°F-3.2°C 21.2°F-6.0°C 81% Calm Calm -- 29.96 in1014.6 mb 0.00 in0.0 mm 0.00 in/hr0.0 mm/hr 0.00 in0.0 mm
03:09 AM 26.5°F-3.1°C 21.5°F-5.8°C 81% Calm Calm -- 29.96 in1014.6 mb 0.00 in0.0 mm 0.00 in/hr0.0 mm/hr 0.00 in0.0 mm
03:20 AM 26.4°F-3.1°C 21.4°F-5.9°C 81% Calm Calm -- 29.96 in1014.6 mb 0.00 in0.0 mm 0.00 in/hr0.0 mm/hr 0.00 in0.0 mm
03:32 AM 26.0°F-3.3°C 21.0°F-6.1°C 81% Calm Calm -- 29.96 in1014.6 mb 0.00 in0.0 mm 0.00 in/hr0.0 mm/hr 0.00 in0.0 mm
03:43 AM 25.8°F-3.4°C 20.8°F-6.2°C 81% Calm Calm -- 29.96 in1014.6 mb 0.00 in0.0 mm 0.00 in/hr0.0 mm/hr 0.00 in0.0 mm
03:54 AM 25.8°F-3.4°C 21.1°F-6.1°C 82% Calm Calm -- 29.96 in1014.6 mb 0.00 in0.0 mm 0.00 in/hr0.0 mm/hr 0.00 in0.0 mm
04:04 AM 26.0°F-3.3°C 20.7°F-6.3°C 80% Calm Calm -- 29.96 in1014.6 mb 0.00 in0.0 mm 0.00 in/hr0.0 mm/hr 0.00 in0.0 mm
04:14 AM 25.8°F-3.4°C 20.5°F-6.4°C 80% Calm Calm -- 29.96 in1014.6 mb 0.00 in0.0 mm 0.00 in/hr0.0 mm/hr 0.00 in0.0 mm
04:25 AM 25.5°F-3.6°C 19.9°F-6.7°C 79% Calm Calm -- 29.97 in1014.9 mb 0.00 in0.0 mm 0.00 in/hr0.0 mm/hr 0.00 in0.0 mm
04:36 AM 24.9°F-3.9°C 19.9°F-6.7°C 81% Calm Calm -- 29.98 in1015.2 mb 0.00 in0.0 mm 0.00 in/hr0.0 mm/hr 0.00 in0.0 mm
04:47 AM 23.7°F-4.6°C 19.0°F-7.2°C 82% Calm Calm -- 29.98 in1015.2 mb 0.00 in0.0 mm 0.00 in/hr0.0 mm/hr 0.00 in0.0 mm
04:58 AM 23.7°F-4.6°C 19.6°F-6.9°C 84% Calm Calm -- 29.98 in1015.2 mb 0.00 in0.0 mm 0.00 in/hr0.0 mm/hr 0.00 in0.0 mm
05:08 AM 23.8°F-4.6°C 19.9°F-6.7°C 85% Calm Calm -- 29.98 in1015.2 mb 0.00 in0.0 mm 0.00 in/hr0.0 mm/hr 0.00 in0.0 mm
05:19 AM 23.5°F-4.7°C 19.6°F-6.9°C 85% Calm Calm -- 29.98 in1015.2 mb 0.00 in0.0 mm 0.00 in/hr0.0 mm/hr 0.00 in0.0 mm
05:31 AM 24.0°F-4.4°C 19.8°F-6.8°C 84% Calm Calm -- 29.98 in1015.2 mb 0.00 in0.0 mm 0.00 in/hr0.0 mm/hr 0.00 in0.0 mm
05:42 AM 24.4°F-4.2°C 19.7°F-6.8°C 82% Calm Calm -- 29.98 in1015.2 mb 0.00 in0.0 mm 0.00 in/hr0.0 mm/hr 0.00 in0.0 mm
05:52 AM 23.8°F-4.6°C 19.1°F-7.2°C 82% Calm Calm -- 29.99 in1015.6 mb 0.00 in0.0 mm 0.00 in/hr0.0 mm/hr 0.00 in0.0 mm
06:03 AM 23.5°F-4.7°C 19.1°F-7.2°C 83% Calm Calm -- 30.00 in1015.9 mb 0.00 in0.0 mm 0.00 in/hr0.0 mm/hr 0.00 in0.0 mm
06:13 AM 23.8°F-4.6°C 19.4°F-7.0°C 83% Calm Calm -- 30.00 in1015.9 mb 0.00 in0.0 mm 0.00 in/hr0.0 mm/hr 0.00 in0.0 mm
06:24 AM 24.0°F-4.4°C 19.3°F-7.1°C 82% Calm Calm -- 30.00 in1015.9 mb 0.00 in0.0 mm 0.00 in/hr0.0 mm/hr 0.00 in0.0 mm
06:34 AM 24.4°F-4.2°C 19.4°F-7.0°C 81% Calm Calm -- 29.99 in1015.6 mb 0.00 in0.0 mm 0.00 in/hr0.0 mm/hr 0.00 in0.0 mm
06:46 AM 24.9°F-3.9°C 19.6°F-6.9°C 80% Calm Calm -- 30.00 in1015.9 mb 0.00 in0.0 mm 0.00 in/hr0.0 mm/hr 0.00 in0.0 mm
06:56 AM 28.9°F-1.7°C 22.0°F-5.6°C 75% Calm Calm -- 30.00 in1015.9 mb 0.00 in0.0 mm 0.00 in/hr0.0 mm/hr 0.00 in0.0 mm
07:07 AM 35.3°F1.8°C 24.0°F-4.4°C 63% Calm Calm -- 30.00 in1015.9 mb 0.00 in0.0 mm 0.00 in/hr0.0 mm/hr 0.00 in0.0 mm
07:17 AM 36.3°F2.4°C 23.0°F-5.0°C 58% Calm Calm -- 30.01 in1016.3 mb 0.00 in0.0 mm 0.00 in/hr0.0 mm/hr 0.00 in0.0 mm
07:28 AM 38.6°F3.7°C 23.8°F-4.6°C 55% Calm Calm -- 30.01 in1016.3 mb 0.00 in0.0 mm 0.00 in/hr0.0 mm/hr 0.00 in0.0 mm
07:39 AM 41.1°F5.1°C 24.3°F-4.3°C 51% Calm Calm -- 30.01 in1016.3 mb 0.00 in0.0 mm 0.00 in/hr0.0 mm/hr 0.00 in0.0 mm
07:49 AM 42.4°F5.8°C 24.0°F-4.4°C 48% Calm Calm -- 30.02 in1016.6 mb 0.00 in0.0 mm 0.00 in/hr0.0 mm/hr 0.00 in0.0 mm
08:00 AM 44.6°F7.0°C 21.5°F-5.8°C 40% Calm Calm -- 30.02 in1016.6 mb 0.00 in0.0 mm 0.00 in/hr0.0 mm/hr 0.00 in0.0 mm
08:11 AM 42.4°F5.8°C 20.1°F-6.6°C 41% Calm Calm 1.6 mph2.6 kmh 30.03 in1016.9 mb 0.00 in0.0 mm 0.00 in/hr0.0 mm/hr 0.00 in0.0 mm
08:21 AM 42.2°F5.7°C 20.6°F-6.3°C 42% Calm Calm -- 30.03 in1016.9 mb 0.00 in0.0 mm 0.00 in/hr0.0 mm/hr 0.00 in0.0 mm
08:33 AM 40.6°F4.8°C 19.7°F-6.8°C 43% Calm Calm -- 30.03 in1016.9 mb 0.00 in0.0 mm 0.00 in/hr0.0 mm/hr 0.00 in0.0 mm
08:44 AM 41.7°F5.4°C 20.7°F-6.3°C 43% 1.2 mph NNW1.9 kmh NNW 1.6 mph2.6 kmh 30.03 in1016.9 mb 0.00 in0.0 mm 0.00 in/hr0.0 mm/hr 0.00 in0.0 mm
08:54 AM 41.4°F5.2°C 20.9°F-6.2°C 44% Calm Calm 3.4 mph5.5 kmh 30.04 in1017.3 mb 0.00 in0.0 mm 0.00 in/hr0.0 mm/hr 0.00 in0.0 mm
09:06 AM 40.8°F4.9°C 22.0°F-5.6°C 47% Calm Calm -- 30.05 in1017.6 mb 0.00 in0.0 mm 0.00 in/hr0.0 mm/hr 0.00 in0.0 mm
09:17 AM 41.5°F5.3°C 21.1°F-6.1°C 44% 4.9 mph 7.9 kmh 6.6 mph10.6 kmh 30.05 in1017.6 mb 0.00 in0.0 mm 0.00 in/hr0.0 mm/hr 0.00 in0.0 mm
09:27 AM 40.5°F4.7°C 20.7°F-6.3°C 45% Calm Calm 6.6 mph10.6 kmh 30.04 in1017.3 mb 0.00 in0.0 mm 0.00 in/hr0.0 mm/hr 0.00 in0.0 mm
09:39 AM 41.0°F5.0°C 20.1°F-6.6°C 43% 1.2 mph 1.9 kmh 4.8 mph7.7 kmh 30.05 in1017.6 mb 0.00 in0.0 mm 0.00 in/hr0.0 mm/hr 0.00 in0.0 mm
09:50 AM 40.8°F4.9°C 20.4°F-6.4°C 44% 4.2 mph NE6.8 kmh NE 37.0 mph59.5 kmh 30.06 in1017.9 mb 0.00 in0.0 mm 0.00 in/hr0.0 mm/hr 0.00 in0.0 mm
10:00 AM 40.5°F4.7°C 20.1°F-6.6°C 44% 1.7 mph NE2.7 kmh NE 23.6 mph38.0 kmh 30.05 in1017.6 mb 0.00 in0.0 mm 0.00 in/hr0.0 mm/hr 0.00 in0.0 mm
10:11 AM 42.3°F5.7°C 20.7°F-6.3°C 42% 2.9 mph NE4.7 kmh NE 4.4 mph7.1 kmh 30.06 in1017.9 mb 0.00 in0.0 mm 0.00 in/hr0.0 mm/hr 0.00 in0.0 mm
10:21 AM 41.6°F5.3°C 19.5°F-6.9°C 41% 2.6 mph ENE4.2 kmh ENE 8.0 mph12.9 kmh 30.06 in1017.9 mb 0.00 in0.0 mm 0.00 in/hr0.0 mm/hr 0.00 in0.0 mm
10:32 AM 43.1°F6.2°C 19.0°F-7.2°C 38% 1.7 mph ENE2.7 kmh ENE 6.2 mph10.0 kmh 30.06 in1017.9 mb 0.00 in0.0 mm 0.00 in/hr0.0 mm/hr 0.00 in0.0 mm
10:43 AM 42.0°F5.6°C 18.6°F-7.4°C 39% 1.7 mph 2.7 kmh 2.2 mph3.5 kmh 30.06 in1017.9 mb 0.00 in0.0 mm 0.00 in/hr0.0 mm/hr 0.00 in0.0 mm
10:53 AM 42.4°F5.8°C 18.4°F-7.6°C 38% 3.5 mph NNE5.6 kmh NNE 39.8 mph64.1 kmh 30.05 in1017.6 mb 0.00 in0.0 mm 0.00 in/hr0.0 mm/hr 0.00 in0.0 mm
11:04 AM 43.4°F6.3°C 19.9°F-6.7°C 39% 0.6 mph NE1.0 kmh NE 7.0 mph11.3 kmh 30.05 in1017.6 mb 0.00 in0.0 mm 0.00 in/hr0.0 mm/hr 0.00 in0.0 mm
11:14 AM 42.4°F5.8°C 18.4°F-7.6°C 38% 2.9 mph NNE4.7 kmh NNE 8.0 mph12.9 kmh 30.05 in1017.6 mb 0.00 in0.0 mm 0.00 in/hr0.0 mm/hr 0.00 in0.0 mm
11:24 AM 44.1°F6.7°C 18.6°F-7.4°C 36% 3.7 mph NE6.0 kmh NE 9.8 mph15.8 kmh 30.04 in1017.3 mb 0.00 in0.0 mm 0.00 in/hr0.0 mm/hr 0.00 in0.0 mm
11:35 AM 43.7°F6.5°C 20.1°F-6.6°C 39% 4.0 mph N6.4 kmh N 8.4 mph13.5 kmh 30.04 in1017.3 mb 0.00 in0.0 mm 0.00 in/hr0.0 mm/hr 0.00 in0.0 mm
11:45 AM 43.4°F6.3°C 19.3°F-7.1°C 38% 2.6 mph NE4.2 kmh NE 7.6 mph12.2 kmh 30.05 in1017.6 mb 0.00 in0.0 mm 0.00 in/hr0.0 mm/hr 0.00 in0.0 mm
11:56 AM 44.5°F6.9°C 20.8°F-6.2°C 39% 1.9 mph WNW3.1 kmh WNW 5.2 mph8.4 kmh 30.04 in1017.3 mb 0.00 in0.0 mm 0.00 in/hr0.0 mm/hr 0.00 in0.0 mm
12:06 PM 44.2°F6.8°C 18.0°F-7.8°C 35% 2.2 mph NNE3.5 kmh NNE 4.8 mph7.7 kmh 30.04 in1017.3 mb 0.00 in0.0 mm 0.00 in/hr0.0 mm/hr 0.00 in0.0 mm
12:17 PM 45.3°F7.4°C 18.3°F-7.6°C 34% Calm Calm 8.8 mph14.2 kmh 30.04 in1017.3 mb 0.00 in0.0 mm 0.00 in/hr0.0 mm/hr 0.00 in0.0 mm
12:27 PM 45.2°F7.3°C 17.6°F-8.0°C 33% 7.1 mph NE11.4 kmh NE 23.6 mph38.0 kmh 30.03 in1016.9 mb 0.00 in0.0 mm 0.00 in/hr0.0 mm/hr 0.00 in0.0 mm
12:38 PM 45.0°F7.2°C 15.2°F-9.3°C 30% 2.8 mph NNE4.5 kmh NNE 43.2 mph69.5 kmh 30.03 in1016.9 mb 0.00 in0.0 mm 0.00 in/hr0.0 mm/hr 0.00 in0.0 mm
12:48 PM 46.5°F8.1°C 18.0°F-7.8°C 32% Calm Calm 29.4 mph47.3 kmh 30.03 in1016.9 mb 0.00 in0.0 mm 0.00 in/hr0.0 mm/hr 0.00 in0.0 mm
12:59 PM 46.7°F8.2°C 15.9°F-8.9°C 29% 3.0 mph ENE4.8 kmh ENE 44.6 mph71.8 kmh 30.03 in1016.9 mb 0.00 in0.0 mm 0.00 in/hr0.0 mm/hr 0.00 in0.0 mm
01:09 PM 45.6°F7.6°C 15.7°F-9.1°C 30% 2.5 mph NE4.0 kmh NE 42.0 mph67.6 kmh 30.03 in1016.9 mb 0.00 in0.0 mm 0.00 in/hr0.0 mm/hr 0.00 in0.0 mm
01:20 PM 47.7°F8.7°C 16.8°F-8.4°C 29% 3.6 mph W5.8 kmh W 30.4 mph48.9 kmh 30.02 in1016.6 mb 0.00 in0.0 mm 0.00 in/hr0.0 mm/hr 0.00 in0.0 mm
01:30 PM 46.7°F8.2°C 14.3°F-9.8°C 27% 6.5 mph NE10.5 kmh NE 9.8 mph15.8 kmh 30.02 in1016.6 mb 0.00 in0.0 mm 0.00 in/hr0.0 mm/hr 0.00 in0.0 mm
01:41 PM 46.2°F7.9°C 15.4°F-9.2°C 29% 3.3 mph NE5.3 kmh NE 51.0 mph82.1 kmh 30.01 in1016.3 mb 0.00 in0.0 mm 0.00 in/hr0.0 mm/hr 0.00 in0.0 mm
01:51 PM 48.6°F9.2°C 11.3°F-11.5°C 22% 0.9 mph NE1.4 kmh NE 4.4 mph7.1 kmh 30.01 in1016.3 mb 0.00 in0.0 mm 0.00 in/hr0.0 mm/hr 0.00 in0.0 mm
02:02 PM 48.7°F9.3°C 12.5°F-10.8°C 23% 3.3 mph NNE5.3 kmh NNE 6.2 mph10.0 kmh 30.01 in1016.3 mb 0.00 in0.0 mm 0.00 in/hr0.0 mm/hr 0.00 in0.0 mm
02:12 PM 47.0°F8.3°C 9.0°F-12.8°C 21% 5.4 mph NE8.7 kmh NE 47.4 mph76.3 kmh 30.00 in1015.9 mb 0.00 in0.0 mm 0.00 in/hr0.0 mm/hr 0.00 in0.0 mm
02:23 PM 47.9°F8.8°C 10.7°F-11.8°C 22% 6.2 mph NNE10.0 kmh NNE 38.4 mph61.8 kmh 30.00 in1015.9 mb 0.00 in0.0 mm 0.00 in/hr0.0 mm/hr 0.00 in0.0 mm
02:33 PM 48.8°F9.3°C 9.4°F-12.6°C 20% 0.9 mph NW1.4 kmh NW 44.2 mph71.1 kmh 30.00 in1015.9 mb 0.00 in0.0 mm 0.00 in/hr0.0 mm/hr 0.00 in0.0 mm
02:44 PM 49.0°F9.4°C 10.7°F-11.8°C 21% 0.9 mph NNW1.4 kmh NNW 7.0 mph11.3 kmh 30.00 in1015.9 mb 0.00 in0.0 mm 0.00 in/hr0.0 mm/hr 0.00 in0.0 mm
02:54 PM 49.1°F9.5°C 9.7°F-12.4°C 20% 4.1 mph N6.6 kmh N 15.6 mph25.1 kmh 30.01 in1016.3 mb 0.00 in0.0 mm 0.00 in/hr0.0 mm/hr 0.00 in0.0 mm
03:05 PM 48.3°F9.1°C 11.1°F-11.6°C 22% 6.6 mph NW10.6 kmh NW 44.6 mph71.8 kmh 30.00 in1015.9 mb 0.00 in0.0 mm 0.00 in/hr0.0 mm/hr 0.00 in0.0 mm
03:15 PM 49.3°F9.6°C 12.9°F-10.6°C 23% 2.8 mph ENE4.5 kmh ENE 46.0 mph74.0 kmh 30.00 in1015.9 mb 0.00 in0.0 mm 0.00 in/hr0.0 mm/hr 0.00 in0.0 mm
03:26 PM 50.9°F10.5°C 13.3°F-10.4°C 22% 3.3 mph WNW5.3 kmh WNW 4.4 mph7.1 kmh 30.00 in1015.9 mb 0.00 in0.0 mm 0.00 in/hr0.0 mm/hr 0.00 in0.0 mm
03:36 PM 50.1°F10.1°C 13.6°F-10.2°C 23% 6.3 mph NNE10.1 kmh NNE 49.2 mph79.2 kmh 29.99 in1015.6 mb 0.00 in0.0 mm 0.00 in/hr0.0 mm/hr 0.00 in0.0 mm
03:47 PM 50.5°F10.3°C 11.9°F-11.2°C 21% 4.9 mph NE7.9 kmh NE 9.2 mph14.8 kmh 29.99 in1015.6 mb 0.00 in0.0 mm 0.00 in/hr0.0 mm/hr 0.00 in0.0 mm
03:57 PM 50.6°F10.3°C 12.0°F-11.1°C 21% 3.1 mph NW5.0 kmh NW 29.8 mph48.0 kmh 29.99 in1015.6 mb 0.00 in0.0 mm 0.00 in/hr0.0 mm/hr 0.00 in0.0 mm
04:08 PM 49.2°F9.6°C 11.8°F-11.2°C 22% 6.2 mph NE10.0 kmh NE 45.0 mph72.4 kmh 29.99 in1015.6 mb 0.00 in0.0 mm 0.00 in/hr0.0 mm/hr 0.00 in0.0 mm
04:18 PM 49.7°F9.8°C 11.2°F-11.6°C 21% 6.1 mph 9.8 kmh 41.6 mph66.9 kmh 29.99 in1015.6 mb 0.00 in0.0 mm 0.00 in/hr0.0 mm/hr 0.00 in0.0 mm
04:29 PM 49.5°F9.7°C 12.1°F-11.1°C 22% 6.0 mph ENE9.7 kmh ENE 8.4 mph13.5 kmh 29.99 in1015.6 mb 0.00 in0.0 mm 0.00 in/hr0.0 mm/hr 0.00 in0.0 mm
04:39 PM 49.4°F9.7°C 11.0°F-11.7°C 21% 5.5 mph NE8.9 kmh NE 50.4 mph81.1 kmh 29.99 in1015.6 mb 0.00 in0.0 mm 0.00 in/hr0.0 mm/hr 0.00 in0.0 mm
04:50 PM 50.4°F10.2°C 13.8°F-10.1°C 23% 5.7 mph NW9.2 kmh NW 7.6 mph12.2 kmh 29.99 in1015.6 mb 0.00 in0.0 mm 0.00 in/hr0.0 mm/hr 0.00 in0.0 mm
05:00 PM 49.9°F9.9°C 16.2°F-8.8°C 26% 0.9 mph SSW1.4 kmh SSW 7.6 mph12.2 kmh 29.99 in1015.6 mb 0.00 in0.0 mm 0.00 in/hr0.0 mm/hr 0.00 in0.0 mm
05:10 PM 49.6°F9.8°C 15.9°F-8.9°C 26% 6.0 mph ENE9.7 kmh ENE 8.0 mph12.9 kmh 29.99 in1015.6 mb 0.00 in0.0 mm 0.00 in/hr0.0 mm/hr 0.00 in0.0 mm
05:21 PM 49.3°F9.6°C 16.5°F-8.6°C 27% 1.4 mph NW2.3 kmh NW 3.0 mph4.8 kmh 29.98 in1015.2 mb 0.00 in0.0 mm 0.00 in/hr0.0 mm/hr 0.00 in0.0 mm
05:32 PM 49.0°F9.4°C 16.3°F-8.7°C 27% 1.9 mph ENE3.1 kmh ENE 6.2 mph10.0 kmh 29.98 in1015.2 mb 0.00 in0.0 mm 0.00 in/hr0.0 mm/hr 0.00 in0.0 mm
05:42 PM 48.8°F9.3°C 16.9°F-8.4°C 28% 0.6 mph NNE1.0 kmh NNE 3.4 mph5.5 kmh 29.99 in1015.6 mb 0.00 in0.0 mm 0.00 in/hr0.0 mm/hr 0.00 in0.0 mm
05:53 PM 48.4°F9.1°C 17.4°F-8.1°C 29% 4.9 mph NNE7.9 kmh NNE 6.6 mph10.6 kmh 29.99 in1015.6 mb 0.00 in0.0 mm 0.00 in/hr0.0 mm/hr 0.00 in0.0 mm
06:03 PM 48.2°F9.0°C 17.2°F-8.2°C 29% Calm Calm 6.6 mph10.6 kmh 29.98 in1015.2 mb 0.00 in0.0 mm 0.00 in/hr0.0 mm/hr 0.00 in0.0 mm
06:13 PM 46.4°F8.0°C 16.4°F-8.7°C 30% 1.4 mph NE2.3 kmh NE 8.0 mph12.9 kmh 29.99 in1015.6 mb 0.00 in0.0 mm 0.00 in/hr0.0 mm/hr 0.00 in0.0 mm
06:24 PM 45.7°F7.6°C 16.5°F-8.6°C 31% 6.3 mph NE10.1 kmh NE 8.4 mph13.5 kmh 30.00 in1015.9 mb 0.00 in0.0 mm 0.00 in/hr0.0 mm/hr 0.00 in0.0 mm
06:34 PM 45.4°F7.4°C 18.4°F-7.6°C 34% 2.6 mph NE4.2 kmh NE 3.4 mph5.5 kmh 30.00 in1015.9 mb 0.00 in0.0 mm 0.00 in/hr0.0 mm/hr 0.00 in0.0 mm
06:45 PM 44.8°F7.1°C 18.6°F-7.4°C 35% 0.6 mph NNE1.0 kmh NNE 7.6 mph12.2 kmh 30.01 in1016.3 mb 0.00 in0.0 mm 0.00 in/hr0.0 mm/hr 0.00 in0.0 mm
06:55 PM 44.4°F6.9°C 20.2°F-6.6°C 38% Calm Calm -- 30.01 in1016.3 mb 0.00 in0.0 mm 0.00 in/hr0.0 mm/hr 0.00 in0.0 mm
07:06 PM 43.8°F6.6°C 20.8°F-6.2°C 40% Calm Calm -- 30.01 in1016.3 mb 0.00 in0.0 mm 0.00 in/hr0.0 mm/hr 0.00 in0.0 mm
07:16 PM 42.9°F6.1°C 22.3°F-5.4°C 44% Calm Calm 2.6 mph4.2 kmh 30.02 in1016.6 mb 0.00 in0.0 mm 0.00 in/hr0.0 mm/hr 0.00 in0.0 mm
07:27 PM 42.4°F5.8°C 22.4°F-5.3°C 45% Calm Calm 4.0 mph6.4 kmh 30.02 in1016.6 mb 0.00 in0.0 mm 0.00 in/hr0.0 mm/hr 0.00 in0.0 mm
07:37 PM 41.3°F5.2°C 24.0°F-4.4°C 50% Calm Calm -- 30.03 in1016.9 mb 0.00 in0.0 mm 0.00 in/hr0.0 mm/hr 0.00 in0.0 mm
07:48 PM 40.6°F4.8°C 23.4°F-4.8°C 50% Calm Calm -- 30.04 in1017.3 mb 0.00 in0.0 mm 0.00 in/hr0.0 mm/hr 0.00 in0.0 mm
07:58 PM 40.4°F4.7°C 23.7°F-4.6°C 51% Calm Calm -- 30.03 in1016.9 mb 0.00 in0.0 mm 0.00 in/hr0.0 mm/hr 0.00 in0.0 mm
08:09 PM 39.9°F4.4°C 23.7°F-4.6°C 52% 0.9 mph NW1.4 kmh NW 2.6 mph4.2 kmh 30.04 in1017.3 mb 0.00 in0.0 mm 0.00 in/hr0.0 mm/hr 0.00 in0.0 mm
08:20 PM 39.9°F4.4°C 23.2°F-4.9°C 51% Calm Calm -- 30.05 in1017.6 mb 0.00 in0.0 mm 0.00 in/hr0.0 mm/hr 0.00 in0.0 mm
08:30 PM 39.3°F4.1°C 23.1°F-4.9°C 52% Calm Calm -- 30.05 in1017.6 mb 0.00 in0.0 mm 0.00 in/hr0.0 mm/hr 0.00 in0.0 mm
08:41 PM 38.8°F3.8°C 23.6°F-4.7°C 54% Calm Calm -- 30.06 in1017.9 mb 0.00 in0.0 mm 0.00 in/hr0.0 mm/hr 0.00 in0.0 mm
08:51 PM 39.1°F3.9°C 23.4°F-4.8°C 53% 0.3 mph WNW0.5 kmh WNW 0.4 mph0.6 kmh 30.06 in1017.9 mb 0.00 in0.0 mm 0.00 in/hr0.0 mm/hr 0.00 in0.0 mm
09:01 PM 39.5°F4.2°C 23.3°F-4.8°C 52% 3.9 mph NW6.3 kmh NW 5.2 mph8.4 kmh 30.06 in1017.9 mb 0.00 in0.0 mm 0.00 in/hr0.0 mm/hr 0.00 in0.0 mm
09:12 PM 39.3°F4.1°C 23.6°F-4.7°C 53% 2.6 mph W4.2 kmh W 3.4 mph5.5 kmh 30.06 in1017.9 mb 0.00 in0.0 mm 0.00 in/hr0.0 mm/hr 0.00 in0.0 mm
09:22 PM 39.3°F4.1°C 23.6°F-4.7°C 53% 0.3 mph NNW0.5 kmh NNW 4.4 mph7.1 kmh 30.07 in1018.3 mb 0.00 in0.0 mm 0.00 in/hr0.0 mm/hr 0.00 in0.0 mm
09:33 PM 38.6°F3.7°C 23.8°F-4.6°C 55% Calm Calm -- 30.07 in1018.3 mb 0.00 in0.0 mm 0.00 in/hr0.0 mm/hr 0.00 in0.0 mm
09:43 PM 38.4°F3.6°C 23.6°F-4.7°C 55% 0.9 mph W1.4 kmh W 1.2 mph1.9 kmh 30.08 in1018.6 mb 0.00 in0.0 mm 0.00 in/hr0.0 mm/hr 0.00 in0.0 mm
09:54 PM 38.4°F3.6°C 24.1°F-4.4°C 56% Calm Calm 2.6 mph4.2 kmh 30.07 in1018.3 mb 0.00 in0.0 mm 0.00 in/hr0.0 mm/hr 0.00 in0.0 mm
10:04 PM 38.1°F3.4°C 24.2°F-4.3°C 57% Calm Calm -- 30.08 in1018.6 mb 0.00 in0.0 mm 0.00 in/hr0.0 mm/hr 0.00 in0.0 mm
10:15 PM 37.9°F3.3°C 24.5°F-4.2°C 58% Calm Calm -- 30.08 in1018.6 mb 0.00 in0.0 mm 0.00 in/hr0.0 mm/hr 0.00 in0.0 mm
10:25 PM 37.2°F2.9°C 24.2°F-4.3°C 59% Calm Calm -- 30.08 in1018.6 mb 0.00 in0.0 mm 0.00 in/hr0.0 mm/hr 0.00 in0.0 mm
10:36 PM 36.6°F2.6°C 24.1°F-4.4°C 60% Calm Calm -- 30.08 in1018.6 mb 0.00 in0.0 mm 0.00 in/hr0.0 mm/hr 0.00 in0.0 mm
10:46 PM 36.6°F2.6°C 23.7°F-4.6°C 59% Calm Calm -- 30.08 in1018.6 mb 0.00 in0.0 mm 0.00 in/hr0.0 mm/hr 0.00 in0.0 mm
10:57 PM 36.8°F2.7°C 23.4°F-4.8°C 58% Calm Calm -- 30.09 in1019.0 mb 0.00 in0.0 mm 0.00 in/hr0.0 mm/hr 0.00 in0.0 mm
11:07 PM 36.3°F2.4°C 23.4°F-4.8°C 59% Calm Calm -- 30.09 in1019.0 mb 0.00 in0.0 mm 0.00 in/hr0.0 mm/hr 0.00 in0.0 mm
11:18 PM 35.7°F2.1°C 23.2°F-4.9°C 60% Calm Calm -- 30.09 in1019.0 mb 0.00 in0.0 mm 0.00 in/hr0.0 mm/hr 0.00 in0.0 mm
11:28 PM 35.0°F1.7°C 23.4°F-4.8°C 62% Calm Calm -- 30.09 in1019.0 mb 0.00 in0.0 mm 0.00 in/hr0.0 mm/hr 0.00 in0.0 mm
11:39 PM 34.8°F1.6°C 23.2°F-4.9°C 62% Calm Calm -- 30.09 in1019.0 mb 0.00 in0.0 mm 0.00 in/hr0.0 mm/hr 0.00 in0.0 mm
11:49 PM 34.6°F1.4°C 23.0°F-5.0°C 62% Calm Calm -- 30.09 in1019.0 mb 0.00 in0.0 mm 0.00 in/hr0.0 mm/hr 0.00 in0.0 mm